createdAt,value
2019-04-04T00:01:47.925Z,44.48
2019-04-04T00:04:22.161Z,44.64
2019-04-04T00:06:57.820Z,44.61
2019-04-04T00:09:31.172Z,44.80
2019-04-04T00:12:06.118Z,44.84
2019-04-04T00:14:39.952Z,45.10
2019-04-04T00:17:12.862Z,45.12
2019-04-04T00:19:45.741Z,45.04
2019-04-04T00:22:18.649Z,45.21
2019-04-04T00:24:51.496Z,45.31
2019-04-04T00:27:24.411Z,45.48
2019-04-04T00:29:57.266Z,45.52
2019-04-04T00:32:30.152Z,45.49
2019-04-04T00:35:02.965Z,45.70
2019-04-04T00:37:36.530Z,45.81
2019-04-04T00:40:11.609Z,45.83
2019-04-04T00:42:44.006Z,45.84
2019-04-04T00:45:16.739Z,46.15
2019-04-04T00:47:50.547Z,46.29
2019-04-04T00:50:23.327Z,46.32
2019-04-04T00:52:56.134Z,46.42
2019-04-04T00:55:28.922Z,46.53
2019-04-04T00:58:01.798Z,46.72
2019-04-04T01:00:34.733Z,46.63
2019-04-04T01:03:07.449Z,46.83
2019-04-04T01:05:41.451Z,46.71
2019-04-04T01:08:14.275Z,46.76
2019-04-04T01:10:49.805Z,46.82
2019-04-04T01:13:23.309Z,46.90
2019-04-04T01:15:57.292Z,47.04
2019-04-04T01:18:31.602Z,47.08
2019-04-04T01:21:06.684Z,47.15
2019-04-04T01:23:40.969Z,47.22
2019-04-04T01:26:14.145Z,47.42
2019-04-04T01:28:47.015Z,47.65
2019-04-04T01:31:20.414Z,47.76
2019-04-04T01:33:53.217Z,47.78
2019-04-04T01:36:26.994Z,47.79
2019-04-04T01:39:00.272Z,47.81
2019-04-04T01:41:36.310Z,47.90
2019-04-04T01:44:11.318Z,47.90
2019-04-04T01:46:46.081Z,48.00
2019-04-04T01:49:19.124Z,48.23
2019-04-04T01:51:56.833Z,48.23
2019-04-04T01:54:27.820Z,48.24
2019-04-04T01:57:00.600Z,48.31
2019-04-04T01:59:33.436Z,48.17
2019-04-04T02:02:06.322Z,48.26
2019-04-04T02:04:40.163Z,48.30
2019-04-04T02:07:12.992Z,48.57
2019-04-04T02:09:47.435Z,48.53
2019-04-04T02:12:22.636Z,48.60
2019-04-04T02:14:55.518Z,48.53
2019-04-04T02:17:28.425Z,48.41
2019-04-04T02:20:01.457Z,48.52
2019-04-04T02:22:34.469Z,48.55
2019-04-04T02:25:09.418Z,48.54
2019-04-04T02:27:42.391Z,48.56
2019-04-04T02:30:16.516Z,48.78
2019-04-04T02:32:49.521Z,48.81
2019-04-04T02:35:22.325Z,48.78
2019-04-04T02:37:56.128Z,48.78
2019-04-04T02:40:29.105Z,49.18
2019-04-04T02:43:01.951Z,49.13
2019-04-04T02:45:35.671Z,49.28
2019-04-04T02:48:09.186Z,49.47
2019-04-04T02:50:41.975Z,49.61
2019-04-04T02:53:19.203Z,49.75
2019-04-04T02:55:49.564Z,49.97
2019-04-04T02:58:22.730Z,50.11
2019-04-04T03:00:59.261Z,50.31
2019-04-04T03:03:31.040Z,50.28
2019-04-04T03:06:03.810Z,50.29
2019-04-04T03:08:37.719Z,50.48
2019-04-04T03:11:13.123Z,50.60
2019-04-04T03:13:46.102Z,50.66
2019-04-04T03:16:21.343Z,50.64
2019-04-04T03:18:55.921Z,50.78
2019-04-04T03:21:28.709Z,50.78
2019-04-04T03:24:05.971Z,50.82
2019-04-04T03:26:35.912Z,50.81
2019-04-04T03:29:10.613Z,51.25
2019-04-04T03:31:43.355Z,51.22
2019-04-04T03:34:17.103Z,51.31
2019-04-04T03:36:49.886Z,51.32
2019-04-04T03:39:22.672Z,51.42
2019-04-04T03:41:56.518Z,51.44
2019-04-04T03:44:29.312Z,51.33
2019-04-04T03:47:02.061Z,51.49
2019-04-04T03:49:34.867Z,51.43
2019-04-04T03:52:11.255Z,51.57
2019-04-04T03:54:42.255Z,51.55
2019-04-04T03:57:15.057Z,51.65
2019-04-04T03:59:47.857Z,51.62
2019-04-04T04:02:23.970Z,51.85
2019-04-04T04:05:00.544Z,51.74
2019-04-04T04:07:31.208Z,51.74
2019-04-04T04:10:04.114Z,51.78
2019-04-04T04:12:36.863Z,51.88
2019-04-04T04:15:09.719Z,51.82
2019-04-04T04:17:45.233Z,51.74
2019-04-04T04:20:17.020Z,51.81
2019-04-04T04:22:50.985Z,51.59
2019-04-04T04:25:24.357Z,51.63
2019-04-04T04:27:57.651Z,51.68
2019-04-04T04:30:30.456Z,51.80
2019-04-04T04:33:03.362Z,51.54
2019-04-04T04:35:40.898Z,51.34
2019-04-04T04:38:10.764Z,51.27
2019-04-04T04:40:46.923Z,51.35
2019-04-04T04:43:18.141Z,51.16
2019-04-04T04:45:50.923Z,51.18
2019-04-04T04:48:25.932Z,51.02
2019-04-04T04:50:58.206Z,50.84
2019-04-04T04:53:30.996Z,51.02
2019-04-04T04:56:03.813Z,51.10
2019-04-04T04:58:36.628Z,50.78
2019-04-04T05:01:09.459Z,50.64
2019-04-04T05:03:42.312Z,50.68
2019-04-04T05:06:15.252Z,50.77
2019-04-04T05:08:48.091Z,50.57
2019-04-04T05:11:20.898Z,50.18
2019-04-04T05:13:53.651Z,50.37
2019-04-04T05:16:26.676Z,50.10
2019-04-04T05:18:59.446Z,50.06
2019-04-04T05:21:34.545Z,49.85
2019-04-04T05:24:06.908Z,49.65
2019-04-04T05:26:39.693Z,49.41
2019-04-04T05:29:13.987Z,49.23
2019-04-04T05:31:49.838Z,49.19
2019-04-04T05:34:21.579Z,48.98
2019-04-04T05:36:54.530Z,49.07
2019-04-04T05:39:27.458Z,48.66
2019-04-04T05:42:01.046Z,48.39
2019-04-04T05:44:34.381Z,47.99
2019-04-04T05:47:07.363Z,47.37
2019-04-04T05:49:40.206Z,47.17
2019-04-04T05:52:13.005Z,46.54
2019-04-04T05:54:45.928Z,46.57
2019-04-04T05:57:20.123Z,46.24
2019-04-04T05:59:55.920Z,45.91
2019-04-04T06:02:28.392Z,45.98
2019-04-04T06:05:01.494Z,45.47
2019-04-04T06:07:36.390Z,45.59
2019-04-04T06:10:11.806Z,45.44
2019-04-04T06:12:43.746Z,45.51
2019-04-04T06:15:16.585Z,45.42
2019-04-04T06:17:49.366Z,45.55
2019-04-04T06:20:22.286Z,45.14
2019-04-04T06:22:55.097Z,45.20
2019-04-04T06:25:34.291Z,45.21
2019-04-04T06:28:04.657Z,44.90
2019-04-04T06:31:26.936Z,44.91
2019-04-04T06:33:57.338Z,44.99
2019-04-04T06:36:30.243Z,44.82
2019-04-04T06:39:04.695Z,44.64
2019-04-04T06:41:37.732Z,44.61
2019-04-04T06:44:12.753Z,44.25
2019-04-04T06:46:45.162Z,43.92
2019-04-04T06:49:17.987Z,43.69
2019-04-04T06:51:51.835Z,43.61
2019-04-04T06:54:25.636Z,43.67
2019-04-04T06:56:59.404Z,43.59
2019-04-04T06:59:33.039Z,43.28
2019-04-04T07:02:06.240Z,42.94
2019-04-04T07:04:39.148Z,42.87
2019-04-04T07:07:12.728Z,42.73
2019-04-04T07:09:46.029Z,42.57
2019-04-04T07:12:24.199Z,42.29
2019-04-04T07:14:53.513Z,42.05
2019-04-04T07:17:26.498Z,41.59
2019-04-04T07:19:59.268Z,41.43
2019-04-04T07:22:32.166Z,41.30
2019-04-04T07:25:06.636Z,41.12
2019-04-04T07:27:40.754Z,41.00
2019-04-04T07:30:15.474Z,40.85
2019-04-04T07:32:48.581Z,40.39
2019-04-04T07:35:21.724Z,40.28
2019-04-04T07:37:57.465Z,39.96
2019-04-04T07:40:29.164Z,39.46
2019-04-04T07:43:02.101Z,39.61
2019-04-04T07:45:34.995Z,39.31
2019-04-04T07:48:07.822Z,38.71
2019-04-04T07:50:40.666Z,38.27
2019-04-04T07:53:13.624Z,38.05
2019-04-04T07:55:46.581Z,37.76
2019-04-04T07:58:19.548Z,37.68
2019-04-04T08:00:52.341Z,37.26
2019-04-04T08:03:25.191Z,36.91
2019-04-04T08:05:58.007Z,36.99
2019-04-04T08:08:30.960Z,36.89
2019-04-04T08:11:03.799Z,36.27
2019-04-04T08:13:36.680Z,35.91
2019-04-04T08:16:09.473Z,36.13
2019-04-04T08:18:42.384Z,35.63
2019-04-04T08:21:15.211Z,34.87
2019-04-04T08:23:48.969Z,34.32
2019-04-04T08:26:21.930Z,34.03
2019-04-04T08:28:54.860Z,33.61
2019-04-04T08:31:27.822Z,33.51
2019-04-04T08:34:00.612Z,32.95
2019-04-04T08:36:35.807Z,32.71
2019-04-04T08:39:12.191Z,31.91
2019-04-04T08:41:45.085Z,31.89
2019-04-04T08:44:17.872Z,31.63
2019-04-04T08:46:51.411Z,31.67
2019-04-04T08:49:24.221Z,31.96
2019-04-04T08:51:56.993Z,31.39
2019-04-04T08:54:29.914Z,30.81
2019-04-04T08:57:02.743Z,30.50
2019-04-04T08:59:35.694Z,30.48
2019-04-04T09:02:08.571Z,30.88
2019-04-04T09:04:41.433Z,30.96
2019-04-04T09:07:14.244Z,31.11
2019-04-04T09:09:47.097Z,30.45
2019-04-04T09:12:21.052Z,30.51
2019-04-04T09:14:53.820Z,30.11
2019-04-04T09:17:26.632Z,30.30
2019-04-04T09:19:59.405Z,30.47
2019-04-04T09:22:32.269Z,29.97
2019-04-04T09:25:05.446Z,29.03
2019-04-04T09:27:38.324Z,29.71
2019-04-04T09:30:12.693Z,29.19
2019-04-04T09:32:45.677Z,28.29
2019-04-04T09:35:18.479Z,27.33
2019-04-04T09:37:51.309Z,27.08
2019-04-04T09:40:24.184Z,27.46
2019-04-04T09:42:57.308Z,27.93
2019-04-04T09:45:30.071Z,27.29
2019-04-04T09:48:03.408Z,28.03
2019-04-04T09:50:36.627Z,27.90
2019-04-04T09:53:10.402Z,27.86
2019-04-04T09:55:43.168Z,27.29
2019-04-04T09:58:16.130Z,26.86
2019-04-04T10:00:50.955Z,27.67
2019-04-04T10:03:24.803Z,28.27
2019-04-04T10:05:57.693Z,28.02
2019-04-04T10:08:30.496Z,28.14
2019-04-04T10:11:03.341Z,27.87
2019-04-04T10:13:36.120Z,27.21
2019-04-04T10:16:08.857Z,26.82
2019-04-04T10:18:41.663Z,27.96
2019-04-04T10:21:14.602Z,27.30
2019-04-04T10:23:47.422Z,27.53
2019-04-04T10:26:21.160Z,26.81
2019-04-04T10:28:53.922Z,26.86
2019-04-04T10:31:26.765Z,26.56
2019-04-04T10:33:59.595Z,26.35
2019-04-04T10:36:32.469Z,26.04
2019-04-04T10:39:08.624Z,25.91
2019-04-04T10:41:41.910Z,26.58
2019-04-04T10:44:14.841Z,26.76
2019-04-04T10:46:47.885Z,25.70
2019-04-04T10:49:20.655Z,25.98
2019-04-04T10:51:53.488Z,26.48
2019-04-04T10:54:26.332Z,26.06
2019-04-04T10:56:59.181Z,25.82
2019-04-04T10:59:32.264Z,25.94
2019-04-04T11:02:05.230Z,25.75
2019-04-04T11:04:38.362Z,25.94
2019-04-04T11:07:11.595Z,25.21
2019-04-04T11:09:44.637Z,25.80
2019-04-04T11:12:17.624Z,26.10
2019-04-04T11:14:50.464Z,25.96
2019-04-04T11:17:23.444Z,26.11
2019-04-04T11:19:56.330Z,26.24
2019-04-04T11:22:29.163Z,26.28
2019-04-04T11:25:02.209Z,26.03
2019-04-04T11:27:35.214Z,26.23
2019-04-04T11:30:10.403Z,25.84
2019-04-04T11:32:43.218Z,26.04
2019-04-04T11:35:16.119Z,25.72
2019-04-04T11:37:48.956Z,26.06
2019-04-04T11:40:21.952Z,25.79
2019-04-04T11:42:54.783Z,26.29
2019-04-04T11:45:27.632Z,26.28
2019-04-04T11:48:00.387Z,26.00
2019-04-04T11:50:33.438Z,26.42
2019-04-04T11:53:06.212Z,26.42
2019-04-04T11:55:39.660Z,25.55
2019-04-04T11:58:12.594Z,25.50
2019-04-04T12:00:47.386Z,25.42
2019-04-04T12:03:20.278Z,25.17
2019-04-04T12:05:53.118Z,25.14
2019-04-04T12:08:25.986Z,25.53
2019-04-04T12:10:58.808Z,25.86
2019-04-04T12:13:31.747Z,26.01
2019-04-04T12:16:04.605Z,26.60
2019-04-04T12:18:37.392Z,26.40
2019-04-04T12:21:10.252Z,26.31
2019-04-04T12:23:43.070Z,25.99
2019-04-04T12:26:16.002Z,25.86
2019-04-04T12:28:48.827Z,25.98
2019-04-04T12:31:21.683Z,26.28
2019-04-04T12:33:54.709Z,26.01
2019-04-04T12:36:27.622Z,26.12
2019-04-04T12:39:00.519Z,25.71
2019-04-04T12:41:35.017Z,25.77
2019-04-04T12:44:07.954Z,26.48
2019-04-04T12:46:42.487Z,26.46
2019-04-04T12:49:15.592Z,26.81
2019-04-04T12:51:48.654Z,26.72
2019-04-04T12:54:21.499Z,26.77
2019-04-04T12:56:54.319Z,26.64
2019-04-04T12:59:27.108Z,26.55
2019-04-04T13:01:59.911Z,26.71
2019-04-04T13:04:32.713Z,26.52
2019-04-04T13:07:06.028Z,26.79
2019-04-04T13:09:38.845Z,26.40
2019-04-04T13:12:11.717Z,26.63
2019-04-04T13:14:44.582Z,26.72
2019-04-04T13:17:17.469Z,26.80
2019-04-04T13:19:50.314Z,26.46
2019-04-04T13:22:23.169Z,26.46
2019-04-04T13:24:55.957Z,26.60
2019-04-04T13:27:28.868Z,26.60
2019-04-04T13:30:01.656Z,26.68
2019-04-04T13:32:35.539Z,26.83
2019-04-04T13:35:08.859Z,27.05
2019-04-04T13:37:41.622Z,27.20
2019-04-04T13:40:14.443Z,27.04
2019-04-04T13:42:47.362Z,27.12
2019-04-04T13:45:20.259Z,26.75
2019-04-04T13:47:54.268Z,26.93
2019-04-04T13:50:27.233Z,26.66
2019-04-04T13:53:00.537Z,26.54
2019-04-04T13:55:33.419Z,26.42
2019-04-04T13:58:07.362Z,26.55
2019-04-04T14:00:40.203Z,26.41
2019-04-04T14:03:13.145Z,26.05
2019-04-04T14:05:46.259Z,26.48
2019-04-04T14:08:19.163Z,26.67
2019-04-04T14:10:58.063Z,26.75
2019-04-04T14:13:26.526Z,26.98
2019-04-04T14:15:59.336Z,26.68
2019-04-04T14:18:39.542Z,26.62
2019-04-04T14:21:06.851Z,26.91
2019-04-04T14:23:39.720Z,26.55
2019-04-04T14:26:12.543Z,26.65
2019-04-04T14:28:46.321Z,26.51
2019-04-04T14:31:19.342Z,26.50
2019-04-04T14:33:52.621Z,26.54
2019-04-04T14:36:26.233Z,26.78
2019-04-04T14:38:59.246Z,26.33
2019-04-04T14:41:35.787Z,26.44
2019-04-04T14:44:08.631Z,26.66
2019-04-04T14:46:41.636Z,26.43
2019-04-04T14:49:15.170Z,26.63
2019-04-04T14:51:48.094Z,26.87
2019-04-04T14:54:21.032Z,26.83
2019-04-04T14:56:53.892Z,26.67
2019-04-04T14:59:27.026Z,26.60
2019-04-04T15:02:00.140Z,26.67
2019-04-04T15:04:34.991Z,27.00
2019-04-04T15:07:11.985Z,26.44
2019-04-04T15:09:44.970Z,26.41
2019-04-04T15:12:18.339Z,26.17
2019-04-04T15:14:51.486Z,26.14
2019-04-04T15:17:24.280Z,26.36
2019-04-04T15:19:57.145Z,26.48
2019-04-04T15:22:31.924Z,26.83
2019-04-04T15:25:04.901Z,26.61
2019-04-04T15:27:39.337Z,26.71
2019-04-04T15:30:16.266Z,26.95
2019-04-04T15:32:49.214Z,26.84
2019-04-04T15:35:22.074Z,26.80
2019-04-04T15:37:55.214Z,26.93
2019-04-04T15:40:28.122Z,26.74
2019-04-04T15:43:00.953Z,26.84
2019-04-04T15:45:34.083Z,27.02
2019-04-04T15:48:06.881Z,26.91
2019-04-04T15:50:39.663Z,26.99
2019-04-04T15:53:12.479Z,27.23
2019-04-04T15:55:45.426Z,27.01
2019-04-04T15:58:18.305Z,26.87
2019-04-04T16:00:52.335Z,27.18
2019-04-04T16:03:25.500Z,27.01
2019-04-04T16:05:58.274Z,27.35
2019-04-04T16:08:33.306Z,27.54
2019-04-04T16:11:06.488Z,27.55
2019-04-04T16:13:39.383Z,27.55
2019-04-04T16:16:12.162Z,27.95
2019-04-04T16:18:46.044Z,28.14
2019-04-04T16:21:19.862Z,28.10
2019-04-04T16:23:52.664Z,28.01
2019-04-04T16:26:25.421Z,28.08
2019-04-04T16:28:58.696Z,28.09
2019-04-04T16:31:34.364Z,28.25
2019-04-04T16:34:06.117Z,28.24
2019-04-04T16:36:38.909Z,28.45
2019-04-04T16:39:11.719Z,28.38
2019-04-04T16:41:44.593Z,28.44
2019-04-04T16:44:17.402Z,28.54
2019-04-04T16:46:50.254Z,28.69
2019-04-04T16:49:23.054Z,28.72
2019-04-04T16:51:57.133Z,28.88
2019-04-04T16:54:29.973Z,28.85
2019-04-04T16:57:03.765Z,29.00
2019-04-04T16:59:36.624Z,29.12
2019-04-04T17:02:09.752Z,29.04
2019-04-04T17:04:42.657Z,29.18
2019-04-04T17:07:15.584Z,29.19
2019-04-04T17:09:48.917Z,29.24
2019-04-04T17:12:21.769Z,29.37
2019-04-04T17:14:54.650Z,29.43
2019-04-04T17:17:27.591Z,29.63
2019-04-04T17:20:00.769Z,29.55
2019-04-04T17:22:33.858Z,29.87
2019-04-04T17:25:07.923Z,29.86
2019-04-04T17:27:41.137Z,30.08
2019-04-04T17:30:15.048Z,30.20
2019-04-04T17:32:49.608Z,30.35
2019-04-04T17:35:22.796Z,30.73
2019-04-04T17:37:55.650Z,30.61
2019-04-04T17:40:28.453Z,30.91
2019-04-04T17:43:02.272Z,30.93
2019-04-04T17:45:35.640Z,31.07
2019-04-04T17:48:08.567Z,31.22
2019-04-04T17:50:41.628Z,31.37
2019-04-04T17:53:15.510Z,31.63
2019-04-04T17:55:49.958Z,31.60
2019-04-04T17:58:23.001Z,31.78
2019-04-04T18:00:56.282Z,31.94
2019-04-04T18:03:29.342Z,32.22
2019-04-04T18:06:02.135Z,32.16
2019-04-04T18:08:35.070Z,32.25
2019-04-04T18:11:08.139Z,32.33
2019-04-04T18:13:41.068Z,32.36
2019-04-04T18:16:14.038Z,32.59
2019-04-04T18:18:46.817Z,32.53
2019-04-04T18:21:19.604Z,32.68
2019-04-04T18:23:52.478Z,32.83
2019-04-04T18:26:25.355Z,32.94
2019-04-04T18:28:58.236Z,33.21
2019-04-04T18:31:31.132Z,33.18
2019-04-04T18:34:04.258Z,33.49
2019-04-04T18:36:37.543Z,33.46
2019-04-04T18:39:11.458Z,33.79
2019-04-04T18:41:44.403Z,34.07
2019-04-04T18:44:17.352Z,34.17
2019-04-04T18:46:50.168Z,34.22
2019-04-04T18:49:23.037Z,34.42
2019-04-04T18:51:55.957Z,34.50
2019-04-04T18:54:28.792Z,34.60
2019-04-04T18:57:01.889Z,34.91
2019-04-04T18:59:34.819Z,35.12
2019-04-04T19:02:07.638Z,35.14
2019-04-04T19:04:40.687Z,35.43
2019-04-04T19:07:13.574Z,35.74
2019-04-04T19:09:46.417Z,35.94
2019-04-04T19:12:19.263Z,36.16
2019-04-04T19:14:52.082Z,36.51
2019-04-04T19:17:24.929Z,36.65
2019-04-04T19:19:57.811Z,36.92
2019-04-04T19:22:31.266Z,37.40
2019-04-04T19:25:04.243Z,37.46
2019-04-04T19:27:37.404Z,37.68
2019-04-04T19:30:11.729Z,37.93
2019-04-04T19:32:44.627Z,38.11
2019-04-04T19:35:18.458Z,38.36
2019-04-04T19:38:00.043Z,38.58
2019-04-04T19:40:25.972Z,39.05
2019-04-04T19:42:58.821Z,39.40
2019-04-04T19:45:31.707Z,39.55
2019-04-04T19:48:04.703Z,40.17
2019-04-04T19:50:39.152Z,40.79
2019-04-04T19:53:12.356Z,41.24
2019-04-04T19:55:45.360Z,41.54
2019-04-04T19:58:18.222Z,41.62
2019-04-04T20:00:51.505Z,41.83
2019-04-04T20:03:24.350Z,41.56
2019-04-04T20:05:57.238Z,41.68
2019-04-04T20:08:30.109Z,41.66
2019-04-04T20:11:02.982Z,41.73
2019-04-04T20:13:35.889Z,41.89
2019-04-04T20:16:08.874Z,42.16
2019-04-04T20:18:41.827Z,42.32
2019-04-04T20:21:14.845Z,42.48
2019-04-04T20:23:47.678Z,42.82
2019-04-04T20:26:20.557Z,43.11
2019-04-04T20:28:53.440Z,43.37
2019-04-04T20:31:26.644Z,43.57
2019-04-04T20:34:02.374Z,43.83
2019-04-04T20:36:33.972Z,44.03
2019-04-04T20:39:09.387Z,44.09
2019-04-04T20:41:44.611Z,44.37
2019-04-04T20:44:19.897Z,44.57
2019-04-04T20:46:52.812Z,44.60
2019-04-04T20:49:25.671Z,44.69
2019-04-04T20:51:58.568Z,44.86
2019-04-04T20:54:31.355Z,44.99
2019-04-04T20:57:04.219Z,45.09
2019-04-04T20:59:36.984Z,45.08
2019-04-04T21:02:09.752Z,45.08
2019-04-04T21:04:43.709Z,45.24
2019-04-04T21:07:16.497Z,45.35
2019-04-04T21:09:49.296Z,45.24
2019-04-04T21:12:22.081Z,45.14
2019-04-04T21:14:56.191Z,45.00
2019-04-04T21:17:29.145Z,44.90
2019-04-04T21:20:05.723Z,44.87
2019-04-04T21:22:38.654Z,44.87
2019-04-04T21:25:11.841Z,45.31
2019-04-04T21:27:44.622Z,45.52
2019-04-04T21:30:18.408Z,45.28
2019-04-04T21:32:51.378Z,45.19
2019-04-04T21:35:24.164Z,44.83
2019-04-04T21:37:56.944Z,44.46
2019-04-04T21:40:29.768Z,44.43
2019-04-04T21:43:02.751Z,44.44
2019-04-04T21:45:35.550Z,44.25
2019-04-04T21:48:08.327Z,44.37
2019-04-04T21:50:41.117Z,44.73
2019-04-04T21:53:13.923Z,44.91
2019-04-04T21:55:46.727Z,45.19
2019-04-04T21:58:20.475Z,45.05
2019-04-04T22:00:55.010Z,45.07
2019-04-04T22:03:28.060Z,45.10
2019-04-04T22:06:00.908Z,45.16
2019-04-04T22:08:33.767Z,45.26
2019-04-04T22:11:06.568Z,45.25
2019-04-04T22:13:39.332Z,45.44
2019-04-04T22:16:12.188Z,45.54
2019-04-04T22:18:45.048Z,45.56
2019-04-04T22:21:17.855Z,45.74
2019-04-04T22:23:50.751Z,45.88
2019-04-04T22:26:23.859Z,45.96
2019-04-04T22:28:56.660Z,46.07
2019-04-04T22:31:29.506Z,46.00
2019-04-04T22:34:02.439Z,45.86
2019-04-04T22:36:35.339Z,45.77
2019-04-04T22:39:09.552Z,45.57
2019-04-04T22:41:42.418Z,45.47
2019-04-04T22:44:15.421Z,45.46
2019-04-04T22:46:49.730Z,45.42
2019-04-04T22:49:22.459Z,45.44
2019-04-04T22:51:55.375Z,45.49
2019-04-04T22:54:28.164Z,45.66
2019-04-04T22:57:01.032Z,45.83
2019-04-04T22:59:33.977Z,45.97
2019-04-04T23:02:06.841Z,46.14
2019-04-04T23:04:39.710Z,46.24
2019-04-04T23:07:12.625Z,46.19
2019-04-04T23:09:45.585Z,46.02
2019-04-04T23:12:18.430Z,45.97
2019-04-04T23:14:51.385Z,45.61
2019-04-04T23:17:24.170Z,45.56
2019-04-04T23:19:57.335Z,45.32
2019-04-04T23:22:30.171Z,44.86
2019-04-04T23:25:03.170Z,44.91
2019-04-04T23:27:36.180Z,44.93
2019-04-04T23:30:09.480Z,44.78
2019-04-04T23:32:42.254Z,44.90
2019-04-04T23:35:16.655Z,44.95
2019-04-04T23:37:49.822Z,44.74
2019-04-04T23:40:22.629Z,44.85
2019-04-04T23:42:55.455Z,44.81
2019-04-04T23:45:28.469Z,44.81
2019-04-04T23:48:01.326Z,44.98
2019-04-04T23:50:34.428Z,44.74
2019-04-04T23:53:08.564Z,44.65
2019-04-04T23:55:41.309Z,44.70
